createdAt,value
2022-08-25T00:00:49.118Z,1006.99
2022-08-25T00:01:49.119Z,1006.95
2022-08-25T00:02:49.096Z,1007.04
2022-08-25T00:03:49.093Z,1007.02
2022-08-25T00:04:49.075Z,1006.92
2022-08-25T00:05:49.080Z,1006.98
2022-08-25T00:06:49.056Z,1006.98
2022-08-25T00:07:49.060Z,1007.02
2022-08-25T00:08:49.036Z,1007
2022-08-25T00:09:49.034Z,1006.93
2022-08-25T00:10:49.027Z,1006.94
2022-08-25T00:11:49.017Z,1006.99
2022-08-25T00:12:49.003Z,1006.93
2022-08-25T00:13:48.994Z,1006.95
2022-08-25T00:14:48.977Z,1006.97
2022-08-25T00:15:48.958Z,1006.97
2022-08-25T00:16:48.953Z,1007.02
2022-08-25T00:17:48.943Z,1007.01
2022-08-25T00:18:48.934Z,1007.01
2022-08-25T00:19:48.937Z,1007.05
2022-08-25T00:20:48.907Z,1006.97
2022-08-25T00:21:48.899Z,1006.97
2022-08-25T00:22:48.888Z,1006.99
2022-08-25T00:23:48.878Z,1007.1
2022-08-25T00:24:48.874Z,1007.06
2022-08-25T00:25:48.860Z,1007.08
2022-08-25T00:26:48.865Z,1007.07
2022-08-25T00:27:48.830Z,1006.95
2022-08-25T00:28:48.817Z,1007.06
2022-08-25T00:29:48.817Z,1007.02
2022-08-25T00:30:48.796Z,1007.01
2022-08-25T00:31:48.796Z,1007.1
2022-08-25T00:32:48.781Z,1007.03
2022-08-25T00:33:48.768Z,1007.04
2022-08-25T00:34:48.753Z,1007.09
2022-08-25T00:35:48.748Z,1007.1
2022-08-25T00:36:48.754Z,1007.07
2022-08-25T00:37:48.726Z,1007.11
2022-08-25T00:38:48.714Z,1007.05
2022-08-25T00:39:48.708Z,1007.04
2022-08-25T00:40:48.696Z,1007.07
2022-08-25T00:41:48.685Z,1007.04
2022-08-25T00:42:48.669Z,1007.07
2022-08-25T00:43:48.689Z,1007.11
2022-08-25T00:44:48.649Z,1007.07
2022-08-25T00:45:48.653Z,1007.12
2022-08-25T00:46:48.650Z,1007.09
2022-08-25T00:47:48.671Z,1007.09
2022-08-25T00:48:48.608Z,1007.1
2022-08-25T00:49:48.600Z,1007.1
2022-08-25T00:50:48.580Z,1007.06
2022-08-25T00:51:48.576Z,1007.11
2022-08-25T00:52:48.568Z,1007.1
2022-08-25T00:53:48.553Z,1007.05
2022-08-25T00:54:48.544Z,1007.06
2022-08-25T00:55:48.527Z,1007.08
2022-08-25T00:56:48.531Z,1007.1
2022-08-25T00:57:48.519Z,1007.09
2022-08-25T00:58:48.523Z,1007.06
2022-08-25T00:59:48.496Z,1007.18
2022-08-25T01:00:48.479Z,1007.05
2022-08-25T01:01:48.487Z,1007.09
2022-08-25T01:02:48.460Z,1007.04
2022-08-25T01:03:48.446Z,1007.12
2022-08-25T01:04:48.438Z,1007.04
2022-08-25T01:05:48.423Z,1007.1
2022-08-25T01:06:48.478Z,1007.06
2022-08-25T01:07:48.403Z,1007.07
2022-08-25T01:08:48.396Z,1007.06
2022-08-25T01:09:48.383Z,1007.08
2022-08-25T01:10:48.385Z,1007.03
2022-08-25T01:11:48.365Z,1007.07
2022-08-25T01:12:48.346Z,1007.06
2022-08-25T01:13:48.334Z,1007.09
2022-08-25T01:14:48.330Z,1007.02
2022-08-25T01:15:48.311Z,1007.11
2022-08-25T01:16:48.300Z,1007.01
2022-08-25T01:17:48.306Z,1007.11
2022-08-25T01:18:48.295Z,1007.04
2022-08-25T01:19:48.276Z,1007.08
2022-08-25T01:20:48.257Z,1007.09
2022-08-25T01:21:48.246Z,1007.13
2022-08-25T01:22:48.232Z,1007.13
2022-08-25T01:23:48.227Z,1007.1
2022-08-25T01:24:48.221Z,1007.06
2022-08-25T01:25:48.214Z,1007.09
2022-08-25T01:26:48.189Z,1007.03
2022-08-25T01:27:48.181Z,1007.09
2022-08-25T01:28:48.172Z,1007.05
2022-08-25T01:29:48.163Z,1007.03
2022-08-25T01:30:48.152Z,1007.08
2022-08-25T01:31:48.150Z,1007.03
2022-08-25T01:32:48.124Z,1007.11
2022-08-25T01:33:48.110Z,1007.02
2022-08-25T01:34:48.106Z,1007.01
2022-08-25T01:35:48.091Z,1006.95
2022-08-25T01:36:48.086Z,1006.95
2022-08-25T01:37:48.074Z,1006.92
2022-08-25T01:38:48.056Z,1007.01
2022-08-25T01:39:48.050Z,1007.01
2022-08-25T01:40:48.043Z,1006.98
2022-08-25T01:41:48.022Z,1006.98
2022-08-25T01:42:48.014Z,1006.94
2022-08-25T01:43:48.004Z,1006.96
2022-08-25T01:44:47.992Z,1007
2022-08-25T01:45:47.977Z,1006.93
2022-08-25T01:46:47.973Z,1006.96
2022-08-25T01:47:47.959Z,1006.96
2022-08-25T01:48:47.957Z,1006.95
2022-08-25T01:49:47.941Z,1006.97
2022-08-25T01:50:47.926Z,1006.95
2022-08-25T01:51:47.916Z,1006.93
2022-08-25T01:52:47.903Z,1006.94
2022-08-25T01:53:47.892Z,1006.97
2022-08-25T01:54:47.896Z,1006.95
2022-08-25T01:55:47.866Z,1007.02
2022-08-25T01:56:47.864Z,1007.04
2022-08-25T01:57:47.851Z,1006.99
2022-08-25T01:58:47.847Z,1006.99
2022-08-25T01:59:47.824Z,1007
2022-08-25T02:00:47.820Z,1006.98
2022-08-25T02:01:47.805Z,1006.98
2022-08-25T02:02:47.795Z,1007.01
2022-08-25T02:03:47.788Z,1006.95
2022-08-25T02:04:47.775Z,1006.94
2022-08-25T02:05:47.763Z,1006.96
2022-08-25T02:06:47.759Z,1007.01
2022-08-25T02:07:47.739Z,1006.94
2022-08-25T02:08:47.734Z,1006.99
2022-08-25T02:09:47.720Z,1006.99
2022-08-25T02:10:47.715Z,1007.04
2022-08-25T02:11:47.697Z,1006.98
2022-08-25T02:12:47.692Z,1006.94
2022-08-25T02:13:47.681Z,1007
2022-08-25T02:14:47.669Z,1007.02
2022-08-25T02:15:47.665Z,1006.98
2022-08-25T02:16:47.650Z,1007.03
2022-08-25T02:17:47.634Z,1006.98
2022-08-25T02:18:47.621Z,1007.05
2022-08-25T02:19:47.616Z,1007.09
2022-08-25T02:20:47.611Z,1007.07
2022-08-25T02:21:47.596Z,1007.01
2022-08-25T02:22:47.588Z,1007.08
2022-08-25T02:23:47.574Z,1007.08
2022-08-25T02:24:47.559Z,1007.07
2022-08-25T02:25:47.557Z,1007.08
2022-08-25T02:26:47.538Z,1007.09
2022-08-25T02:27:47.532Z,1007.1
2022-08-25T02:28:47.517Z,1007.09
2022-08-25T02:29:47.513Z,1007.11
2022-08-25T02:30:47.495Z,1007.07
2022-08-25T02:31:47.495Z,1007.05
2022-08-25T02:32:47.476Z,1007.09
2022-08-25T02:33:47.476Z,1007.08
2022-08-25T02:34:47.471Z,1007.11
2022-08-25T02:35:47.446Z,1007.03
2022-08-25T02:36:47.446Z,1007.06
2022-08-25T02:37:47.428Z,1007.07
2022-08-25T02:38:47.418Z,1007.06
2022-08-25T02:39:47.432Z,1007.09
2022-08-25T02:40:47.391Z,1007.09
2022-08-25T02:41:47.388Z,1007.06
2022-08-25T02:42:47.382Z,1006.97
2022-08-25T02:43:47.386Z,1006.98
2022-08-25T02:44:47.345Z,1007.01
2022-08-25T02:45:47.334Z,1007.04
2022-08-25T02:46:47.330Z,1007
2022-08-25T02:47:47.326Z,1007.04
2022-08-25T02:48:47.302Z,1007.03
2022-08-25T02:49:47.324Z,1006.99
2022-08-25T02:50:47.298Z,1007.03
2022-08-25T02:51:47.274Z,1007.06
2022-08-25T02:52:47.264Z,1006.98
2022-08-25T02:53:47.264Z,1007
2022-08-25T02:54:47.247Z,1006.97
2022-08-25T02:55:47.236Z,1006.98
2022-08-25T02:56:47.234Z,1006.96
2022-08-25T02:57:47.210Z,1006.93
2022-08-25T02:58:47.202Z,1006.94
2022-08-25T02:59:47.197Z,1007.02
2022-08-25T03:00:47.200Z,1007
2022-08-25T03:01:47.169Z,1007
2022-08-25T03:02:47.163Z,1007.02
2022-08-25T03:03:47.149Z,1007.02
2022-08-25T03:04:47.143Z,1007.04
2022-08-25T03:05:47.130Z,1007
2022-08-25T03:06:47.122Z,1007.03
2022-08-25T03:07:47.102Z,1007.04
2022-08-25T03:08:47.109Z,1007
2022-08-25T03:09:47.084Z,1006.99
2022-08-25T03:10:47.082Z,1006.99
2022-08-25T03:11:47.084Z,1007.03
2022-08-25T03:12:47.057Z,1007.02
2022-08-25T03:13:47.046Z,1006.99
2022-08-25T03:14:47.050Z,1006.98
2022-08-25T03:15:47.018Z,1006.93
2022-08-25T03:16:47.010Z,1006.88
2022-08-25T03:17:47.004Z,1006.92
2022-08-25T03:18:46.994Z,1006.92
2022-08-25T03:19:46.985Z,1006.93
2022-08-25T03:20:46.973Z,1006.9
2022-08-25T03:21:46.962Z,1006.92
2022-08-25T03:22:46.947Z,1006.93
2022-08-25T03:23:46.940Z,1006.89
2022-08-25T03:24:46.932Z,1006.93
2022-08-25T03:25:46.922Z,1006.9
2022-08-25T03:26:46.912Z,1006.9
2022-08-25T03:27:46.897Z,1006.92
2022-08-25T03:28:46.886Z,1006.95
2022-08-25T03:29:46.876Z,1006.94
2022-08-25T03:30:46.864Z,1007.06
2022-08-25T03:31:46.877Z,1006.96
2022-08-25T03:32:46.849Z,1007
2022-08-25T03:33:46.842Z,1007.06
2022-08-25T03:34:46.828Z,1007.04
2022-08-25T03:35:46.815Z,1007.06
2022-08-25T03:36:46.804Z,1007.05
2022-08-25T03:37:46.789Z,1007.07
2022-08-25T03:38:46.785Z,1007.06
2022-08-25T03:39:46.769Z,1007.09
2022-08-25T03:40:46.766Z,1007.06
2022-08-25T03:41:46.746Z,1007.06
2022-08-25T03:42:46.745Z,1007.07
2022-08-25T03:43:46.732Z,1007.03
2022-08-25T03:44:46.723Z,1007.02
2022-08-25T03:45:46.712Z,1007.04
2022-08-25T03:46:46.696Z,1007.09
2022-08-25T03:47:46.687Z,1007
2022-08-25T03:48:46.682Z,1006.99
2022-08-25T03:49:46.670Z,1006.98
2022-08-25T03:50:46.653Z,1006.96
2022-08-25T03:51:46.644Z,1006.97
2022-08-25T03:52:46.634Z,1006.92
2022-08-25T03:53:46.621Z,1006.9
2022-08-25T03:54:46.625Z,1006.92
2022-08-25T03:55:46.601Z,1006.89
2022-08-25T03:56:46.590Z,1006.89
2022-08-25T03:57:46.591Z,1006.88
2022-08-25T03:58:46.572Z,1006.87
2022-08-25T03:59:46.564Z,1006.88
2022-08-25T04:00:46.559Z,1006.87
2022-08-25T04:01:46.542Z,1006.81
2022-08-25T04:02:46.529Z,1006.89
2022-08-25T04:03:46.515Z,1006.82
2022-08-25T04:04:46.503Z,1006.82
2022-08-25T04:05:46.504Z,1006.8
2022-08-25T04:06:46.486Z,1006.82
2022-08-25T04:07:46.475Z,1006.84
2022-08-25T04:08:46.482Z,1006.86
2022-08-25T04:09:46.462Z,1006.83
2022-08-25T04:10:46.442Z,1006.8
2022-08-25T04:11:46.446Z,1006.81
2022-08-25T04:12:46.417Z,1006.75
2022-08-25T04:13:46.409Z,1006.76
2022-08-25T04:14:46.404Z,1006.78
2022-08-25T04:15:46.389Z,1006.72
2022-08-25T04:16:46.379Z,1006.75
2022-08-25T04:17:46.368Z,1006.75
2022-08-25T04:18:46.360Z,1006.74
2022-08-25T04:19:46.349Z,1006.77
2022-08-25T04:20:46.332Z,1006.74
2022-08-25T04:21:46.342Z,1006.75
2022-08-25T04:22:46.331Z,1006.68
2022-08-25T04:23:46.303Z,1006.68
2022-08-25T04:24:46.288Z,1006.7
2022-08-25T04:25:46.286Z,1006.71
2022-08-25T04:26:46.278Z,1006.68
2022-08-25T04:27:46.257Z,1006.63
2022-08-25T04:28:46.254Z,1006.66
2022-08-25T04:29:46.261Z,1006.68
2022-08-25T04:30:46.268Z,1006.69
2022-08-25T04:31:46.213Z,1006.68
2022-08-25T04:32:46.205Z,1006.68
2022-08-25T04:33:46.195Z,1006.68
2022-08-25T04:34:46.182Z,1006.74
2022-08-25T04:35:46.191Z,1006.71
2022-08-25T04:36:46.174Z,1006.77
2022-08-25T04:37:46.156Z,1006.72
2022-08-25T04:38:46.142Z,1006.75
2022-08-25T04:39:46.129Z,1006.81
2022-08-25T04:40:46.122Z,1006.69
2022-08-25T04:41:46.105Z,1006.79
2022-08-25T04:42:46.104Z,1006.8
2022-08-25T04:43:46.093Z,1006.73
2022-08-25T04:44:46.084Z,1006.73
2022-08-25T04:45:46.069Z,1006.64
2022-08-25T04:46:46.063Z,1006.68
2022-08-25T04:47:46.041Z,1006.63
2022-08-25T04:48:46.042Z,1006.67
2022-08-25T04:49:46.027Z,1006.69
2022-08-25T04:50:46.011Z,1006.61
2022-08-25T04:51:46.012Z,1006.69
2022-08-25T04:52:46.004Z,1006.68
2022-08-25T04:53:45.980Z,1006.67
2022-08-25T04:54:46.890Z,1006.68
2022-08-25T04:55:45.958Z,1006.73
2022-08-25T04:56:45.952Z,1006.69
2022-08-25T04:57:45.957Z,1006.73
2022-08-25T04:58:45.934Z,1006.77
2022-08-25T04:59:45.938Z,1006.71
2022-08-25T05:00:45.934Z,1006.67
2022-08-25T05:01:45.908Z,1006.66
2022-08-25T05:02:45.898Z,1006.7
2022-08-25T05:03:45.900Z,1006.63
2022-08-25T05:04:45.870Z,1006.64
2022-08-25T05:05:45.852Z,1006.71
2022-08-25T05:06:45.844Z,1006.66
2022-08-25T05:07:45.830Z,1006.65
2022-08-25T05:08:45.824Z,1006.65
2022-08-25T05:09:45.808Z,1006.62
2022-08-25T05:10:45.796Z,1006.66
2022-08-25T05:11:45.805Z,1006.64
2022-08-25T05:12:45.785Z,1006.64
2022-08-25T05:13:45.768Z,1006.67
2022-08-25T05:14:45.754Z,1006.63
2022-08-25T05:15:45.744Z,1006.58
2022-08-25T05:16:45.738Z,1006.56
2022-08-25T05:17:45.730Z,1006.59
2022-08-25T05:18:45.705Z,1006.55
2022-08-25T05:19:45.704Z,1006.55
2022-08-25T05:20:45.699Z,1006.5
2022-08-25T05:21:45.683Z,1006.54
2022-08-25T05:22:45.672Z,1006.56
2022-08-25T05:23:45.658Z,1006.53
2022-08-25T05:24:45.646Z,1006.53
2022-08-25T05:25:45.628Z,1006.59
2022-08-25T05:26:45.638Z,1006.53
2022-08-25T05:27:45.614Z,1006.57
2022-08-25T05:28:45.600Z,1006.55
2022-08-25T05:29:45.598Z,1006.58
2022-08-25T05:30:45.582Z,1006.57
2022-08-25T05:31:45.568Z,1006.57
2022-08-25T05:32:45.563Z,1006.6
2022-08-25T05:33:45.559Z,1006.58
2022-08-25T05:34:45.546Z,1006.58
2022-08-25T05:35:45.529Z,1006.59
2022-08-25T05:36:45.546Z,1006.6
2022-08-25T05:37:45.509Z,1006.57
2022-08-25T05:38:45.504Z,1006.58
2022-08-25T05:39:45.510Z,1006.58
2022-08-25T05:40:45.472Z,1006.53
2022-08-25T05:41:45.466Z,1006.54
2022-08-25T05:42:45.450Z,1006.49
2022-08-25T05:43:45.442Z,1006.51
2022-08-25T05:44:45.434Z,1006.57
2022-08-25T05:45:45.426Z,1006.51
2022-08-25T05:46:45.410Z,1006.52
2022-08-25T05:47:45.408Z,1006.53
2022-08-25T05:48:45.386Z,1006.52
2022-08-25T05:49:45.418Z,1006.6
2022-08-25T05:50:45.377Z,1006.52
2022-08-25T05:51:45.350Z,1006.51
2022-08-25T05:52:45.348Z,1006.53
2022-08-25T05:53:45.350Z,1006.52
2022-08-25T05:54:45.325Z,1006.56
2022-08-25T05:55:45.313Z,1006.55
2022-08-25T05:56:45.320Z,1006.6
2022-08-25T05:57:45.294Z,1006.56
2022-08-25T05:58:45.302Z,1006.57
2022-08-25T05:59:45.269Z,1006.61
2022-08-25T06:00:45.266Z,1006.59
2022-08-25T06:01:45.251Z,1006.58
2022-08-25T06:02:45.233Z,1006.6
2022-08-25T06:03:45.239Z,1006.62
2022-08-25T06:04:45.224Z,1006.61
2022-08-25T06:05:45.200Z,1006.61
2022-08-25T06:06:45.206Z,1006.64
2022-08-25T06:07:45.222Z,1006.64
2022-08-25T06:08:45.204Z,1006.65
2022-08-25T06:09:45.168Z,1006.68
2022-08-25T06:10:45.160Z,1006.56
2022-08-25T06:11:45.136Z,1006.57
2022-08-25T06:12:45.130Z,1006.65
2022-08-25T06:13:45.119Z,1006.55
2022-08-25T06:14:45.108Z,1006.58
2022-08-25T06:15:45.100Z,1006.6
2022-08-25T06:16:45.097Z,1006.57
2022-08-25T06:17:45.113Z,1006.56
2022-08-25T06:18:45.071Z,1006.59
2022-08-25T06:19:45.053Z,1006.54
2022-08-25T06:20:45.042Z,1006.53
2022-08-25T06:21:45.074Z,1006.48
2022-08-25T06:22:45.027Z,1006.5
2022-08-25T06:23:45.037Z,1006.52
2022-08-25T06:24:45.007Z,1006.49
2022-08-25T06:25:44.999Z,1006.46
2022-08-25T06:26:45.012Z,1006.48
2022-08-25T06:27:44.981Z,1006.5
2022-08-25T06:28:44.990Z,1006.43
2022-08-25T06:29:44.952Z,1006.43
2022-08-25T06:30:44.983Z,1006.49
2022-08-25T06:31:44.927Z,1006.51
2022-08-25T06:32:44.923Z,1006.49
2022-08-25T06:33:44.913Z,1006.49
2022-08-25T06:34:44.901Z,1006.5
2022-08-25T06:35:44.901Z,1006.49
2022-08-25T06:36:44.880Z,1006.45
2022-08-25T06:37:44.867Z,1006.44
2022-08-25T06:38:44.856Z,1006.38
2022-08-25T06:39:44.853Z,1006.4
2022-08-25T06:40:44.834Z,1006.44
2022-08-25T06:41:44.825Z,1006.44
2022-08-25T06:42:44.818Z,1006.37
2022-08-25T06:43:44.808Z,1006.4
2022-08-25T06:44:44.803Z,1006.39
2022-08-25T06:45:44.786Z,1006.38
2022-08-25T06:46:44.789Z,1006.45
2022-08-25T06:47:44.774Z,1006.43
2022-08-25T06:48:44.747Z,1006.34
2022-08-25T06:49:44.762Z,1006.32
2022-08-25T06:50:44.729Z,1006.3
2022-08-25T06:51:44.721Z,1006.32
2022-08-25T06:52:44.718Z,1006.39
2022-08-25T06:53:44.707Z,1006.33
2022-08-25T06:54:44.693Z,1006.3
2022-08-25T06:55:44.676Z,1006.33
2022-08-25T06:56:44.669Z,1006.27
2022-08-25T06:57:44.670Z,1006.26
2022-08-25T06:58:44.642Z,1006.31
2022-08-25T06:59:44.633Z,1006.31
2022-08-25T07:00:52.180Z,1006.33
2022-08-25T07:01:44.606Z,1006.34
2022-08-25T07:02:44.624Z,1006.32
2022-08-25T07:03:44.595Z,1006.32
2022-08-25T07:04:44.576Z,1006.33
2022-08-25T07:05:44.574Z,1006.31
2022-08-25T07:06:44.579Z,1006.31
2022-08-25T07:07:44.550Z,1006.34
2022-08-25T07:08:44.539Z,1006.35
2022-08-25T07:09:44.517Z,1006.34
2022-08-25T07:10:44.508Z,1006.32
2022-08-25T07:11:44.511Z,1006.29
2022-08-25T07:12:44.498Z,1006.37
2022-08-25T07:13:44.492Z,1006.39
2022-08-25T07:14:44.475Z,1006.35
2022-08-25T07:15:44.455Z,1006.38
2022-08-25T07:16:44.451Z,1006.32
2022-08-25T07:17:44.438Z,1006.37
2022-08-25T07:18:44.466Z,1006.37
2022-08-25T07:19:44.431Z,1006.39
2022-08-25T07:20:44.401Z,1006.37
2022-08-25T07:21:44.414Z,1006.4
2022-08-25T07:22:44.382Z,1006.35
2022-08-25T07:23:44.370Z,1006.37
2022-08-25T07:24:44.370Z,1006.39
2022-08-25T07:25:44.352Z,1006.38
2022-08-25T07:26:44.356Z,1006.39
2022-08-25T07:27:44.326Z,1006.37
2022-08-25T07:28:44.315Z,1006.38
2022-08-25T07:29:44.308Z,1006.36
2022-08-25T07:30:44.293Z,1006.41
2022-08-25T07:31:44.286Z,1006.4
2022-08-25T07:32:44.285Z,1006.44
2022-08-25T07:33:44.268Z,1006.48
2022-08-25T07:34:44.273Z,1006.41
2022-08-25T07:35:44.250Z,1006.46
2022-08-25T07:36:44.234Z,1006.48
2022-08-25T07:37:44.226Z,1006.47
2022-08-25T07:38:44.215Z,1006.37
2022-08-25T07:39:44.195Z,1006.4
2022-08-25T07:40:44.189Z,1006.31
2022-08-25T07:41:44.191Z,1006.32
2022-08-25T07:42:44.186Z,1006.27
2022-08-25T07:43:44.158Z,1006.36
2022-08-25T07:44:44.152Z,1006.31
2022-08-25T07:45:44.143Z,1006.3
2022-08-25T07:46:44.131Z,1006.35
2022-08-25T07:47:44.132Z,1006.36
2022-08-25T07:48:44.106Z,1006.37
2022-08-25T07:49:44.107Z,1006.35
2022-08-25T07:50:44.163Z,1006.33
2022-08-25T07:51:44.073Z,1006.36
2022-08-25T07:52:44.061Z,1006.38
2022-08-25T07:53:44.053Z,1006.36
2022-08-25T07:54:44.040Z,1006.38
2022-08-25T07:55:44.032Z,1006.37
2022-08-25T07:56:44.029Z,1006.36
2022-08-25T07:57:44.045Z,1006.39
2022-08-25T07:58:43.998Z,1006.42
2022-08-25T07:59:43.991Z,1006.41
2022-08-25T08:00:43.975Z,1006.46
2022-08-25T08:01:43.974Z,1006.39
2022-08-25T08:02:44.006Z,1006.44
2022-08-25T08:03:43.954Z,1006.48
2022-08-25T08:04:43.940Z,1006.42
2022-08-25T08:05:43.925Z,1006.45
2022-08-25T08:06:43.913Z,1006.42
2022-08-25T08:07:43.900Z,1006.46
2022-08-25T08:08:43.895Z,1006.5
2022-08-25T08:09:43.887Z,1006.48
2022-08-25T08:10:43.888Z,1006.45
2022-08-25T08:11:43.877Z,1006.44
2022-08-25T08:12:43.853Z,1006.44
2022-08-25T08:13:43.845Z,1006.41
2022-08-25T08:14:43.832Z,1006.41
2022-08-25T08:15:43.827Z,1006.39
2022-08-25T08:16:43.809Z,1006.36
2022-08-25T08:17:43.806Z,1006.41
2022-08-25T08:18:43.788Z,1006.45
2022-08-25T08:19:43.782Z,1006.43
2022-08-25T08:20:43.803Z,1006.46
2022-08-25T08:21:43.756Z,1006.42
2022-08-25T08:22:43.745Z,1006.37
2022-08-25T08:23:43.738Z,1006.4
2022-08-25T08:24:43.721Z,1006.41
2022-08-25T08:25:43.725Z,1006.4
2022-08-25T08:26:43.705Z,1006.38
2022-08-25T08:27:43.706Z,1006.35
2022-08-25T08:28:43.685Z,1006.3
2022-08-25T08:29:43.701Z,1006.28
2022-08-25T08:30:43.656Z,1006.31
2022-08-25T08:31:43.672Z,1006.35
2022-08-25T08:32:43.681Z,1006.34
2022-08-25T08:33:43.625Z,1006.32
2022-08-25T08:34:43.632Z,1006.36
2022-08-25T08:35:43.606Z,1006.35
2022-08-25T08:36:43.592Z,1006.41
2022-08-25T08:37:43.598Z,1006.37
2022-08-25T08:38:43.601Z,1006.36
2022-08-25T08:39:43.583Z,1006.29
2022-08-25T08:40:43.589Z,1006.31
2022-08-25T08:41:43.563Z,1006.26
2022-08-25T08:42:43.535Z,1006.24
2022-08-25T08:43:43.528Z,1006.26
2022-08-25T08:44:43.584Z,1006.29
2022-08-25T08:45:43.500Z,1006.27
2022-08-25T08:46:43.533Z,1006.21
2022-08-25T08:47:43.509Z,1006.23
2022-08-25T08:48:44.030Z,1006.21
2022-08-25T08:49:51.021Z,1006.22
2022-08-25T08:50:43.444Z,1006.19
2022-08-25T08:51:43.434Z,1006.22
2022-08-25T08:52:43.551Z,1006.21
2022-08-25T08:53:43.431Z,1006.15
2022-08-25T08:54:43.406Z,1006.15
2022-08-25T08:55:43.408Z,1006.16
2022-08-25T08:56:43.390Z,1006.2
2022-08-25T08:57:43.391Z,1006.13
2022-08-25T08:58:43.387Z,1006.06
2022-08-25T08:59:43.374Z,1006.15
2022-08-25T09:00:43.342Z,1006.06
2022-08-25T09:01:43.338Z,1006.08
2022-08-25T09:02:43.320Z,1006.04
2022-08-25T09:03:43.314Z,1006.09
2022-08-25T09:04:43.317Z,1006.14
2022-08-25T09:05:43.300Z,1006.15
2022-08-25T09:06:43.280Z,1006.12
2022-08-25T09:07:43.330Z,1006.07
2022-08-25T09:08:43.280Z,1006.05
2022-08-25T09:09:43.253Z,1006.1
2022-08-25T09:10:43.236Z,1006.04
2022-08-25T09:11:43.230Z,1005.95
2022-08-25T09:12:43.226Z,1006.07
2022-08-25T09:13:43.213Z,1006.07
2022-08-25T09:14:43.201Z,1006.06
2022-08-25T09:15:43.189Z,1006.05
2022-08-25T09:16:43.191Z,1006.04
2022-08-25T09:17:43.180Z,1005.95
2022-08-25T09:18:43.162Z,1005.99
2022-08-25T09:19:43.152Z,1005.96
2022-08-25T09:20:43.141Z,1006
2022-08-25T09:21:43.136Z,1006
2022-08-25T09:22:43.127Z,1006.05
2022-08-25T09:23:43.116Z,1006
2022-08-25T09:24:43.134Z,1006.05
2022-08-25T09:25:43.139Z,1005.92
2022-08-25T09:26:43.099Z,1006.06
2022-08-25T09:27:43.068Z,1005.92
2022-08-25T09:28:43.058Z,1006.03
2022-08-25T09:29:43.048Z,1006
2022-08-25T09:30:43.031Z,1005.98
2022-08-25T09:31:43.043Z,1005.87
2022-08-25T09:32:43.029Z,1005.87
2022-08-25T09:33:43.014Z,1005.93
2022-08-25T09:34:42.997Z,1005.9
2022-08-25T09:35:42.982Z,1005.96
2022-08-25T09:36:42.983Z,1005.93
2022-08-25T09:37:42.978Z,1005.95
2022-08-25T09:38:42.961Z,1005.91
2022-08-25T09:39:42.953Z,1005.78
2022-08-25T09:40:42.941Z,1005.91
2022-08-25T09:41:42.921Z,1005.87
2022-08-25T09:42:42.933Z,1005.9
2022-08-25T09:43:42.897Z,1005.86
2022-08-25T09:44:42.898Z,1005.75
2022-08-25T09:45:42.882Z,1005.69
2022-08-25T09:46:43.016Z,1005.74
2022-08-25T09:47:42.869Z,1005.64
2022-08-25T09:48:42.849Z,1005.7
2022-08-25T09:49:42.847Z,1005.71
2022-08-25T09:50:42.833Z,1005.63
2022-08-25T09:51:42.818Z,1005.63
2022-08-25T09:52:42.817Z,1005.59
2022-08-25T09:53:42.794Z,1005.59
2022-08-25T09:54:42.805Z,1005.61
2022-08-25T09:55:42.776Z,1005.56
2022-08-25T09:56:42.780Z,1005.62
2022-08-25T09:57:42.753Z,1005.54
2022-08-25T09:58:42.765Z,1005.62
2022-08-25T09:59:42.781Z,1005.56
2022-08-25T10:00:42.768Z,1005.61
2022-08-25T10:01:42.714Z,1005.52
2022-08-25T10:02:42.712Z,1005.51
2022-08-25T10:03:42.693Z,1005.6
2022-08-25T10:04:42.699Z,1005.6
2022-08-25T10:05:42.704Z,1005.52
2022-08-25T10:06:42.665Z,1005.5
2022-08-25T10:07:42.657Z,1005.56
2022-08-25T10:08:42.687Z,1005.57
2022-08-25T10:09:42.633Z,1005.63
2022-08-25T10:10:42.632Z,1005.49
2022-08-25T10:11:42.607Z,1005.5
2022-08-25T10:12:42.600Z,1005.52
2022-08-25T10:13:42.613Z,1005.54
2022-08-25T10:14:42.616Z,1005.48
2022-08-25T10:15:42.572Z,1005.43
2022-08-25T10:16:42.572Z,1005.47
2022-08-25T10:17:42.579Z,1005.48
2022-08-25T10:18:42.550Z,1005.39
2022-08-25T10:19:42.561Z,1005.17
2022-08-25T10:20:42.522Z,1005.34
2022-08-25T10:21:42.509Z,1005.42
2022-08-25T10:22:42.507Z,1005.35
2022-08-25T10:23:42.542Z,1005.37
2022-08-25T10:24:42.480Z,1005.36
2022-08-25T10:25:42.485Z,1005.36
2022-08-25T10:26:42.460Z,1005.3
2022-08-25T10:27:42.463Z,1005.25
2022-08-25T10:28:42.438Z,1005.27
2022-08-25T10:29:42.430Z,1005.25
2022-08-25T10:30:42.420Z,1005.16
2022-08-25T10:31:42.423Z,1005.13
2022-08-25T10:32:42.402Z,1005.05
2022-08-25T10:33:42.389Z,1004.94
2022-08-25T10:34:42.392Z,1004.92
2022-08-25T10:35:42.371Z,1005.01
2022-08-25T10:36:42.371Z,1004.95
2022-08-25T10:37:42.357Z,1004.92
2022-08-25T10:38:42.349Z,1004.96
2022-08-25T10:39:42.330Z,1004.86
2022-08-25T10:40:42.328Z,1004.95
2022-08-25T10:41:42.311Z,1004.87
2022-08-25T10:42:42.318Z,1004.88
2022-08-25T10:43:42.298Z,1004.87
2022-08-25T10:44:42.289Z,1004.85
2022-08-25T10:45:42.271Z,1004.87
2022-08-25T10:46:42.303Z,1004.81
2022-08-25T10:47:42.249Z,1004.76
2022-08-25T10:48:42.304Z,1004.74
2022-08-25T10:49:42.236Z,1004.81
2022-08-25T10:50:42.222Z,1004.75
2022-08-25T10:51:42.222Z,1004.83
2022-08-25T10:52:42.199Z,1004.86
2022-08-25T10:53:42.191Z,1004.84
2022-08-25T10:54:42.179Z,1004.86
2022-08-25T10:55:42.194Z,1004.7
2022-08-25T10:56:42.158Z,1004.73
2022-08-25T10:57:42.151Z,1004.77
2022-08-25T10:58:42.162Z,1004.76
2022-08-25T10:59:42.140Z,1004.53
2022-08-25T11:00:42.122Z,1004.54
2022-08-25T11:01:42.113Z,1004.49
2022-08-25T11:02:42.102Z,1004.76
2022-08-25T11:03:42.094Z,1004.69
2022-08-25T11:04:42.112Z,1004.72
2022-08-25T11:05:42.070Z,1004.71
2022-08-25T11:06:42.067Z,1004.4
2022-08-25T11:07:42.053Z,1004.46
2022-08-25T11:08:42.052Z,1004.75
2022-08-25T11:09:42.036Z,1004.61
2022-08-25T11:10:42.023Z,1004.63
2022-08-25T11:11:42.025Z,1004.33
2022-08-25T11:12:42.006Z,1004.4
2022-08-25T11:13:42.014Z,1004.7
2022-08-25T11:14:41.987Z,1004.75
2022-08-25T11:15:42.097Z,1004.64
2022-08-25T11:16:41.974Z,1004.69
2022-08-25T11:17:42.015Z,1004.73
2022-08-25T11:18:41.952Z,1004.63
2022-08-25T11:19:41.945Z,1004.67
2022-08-25T11:20:41.952Z,1004.64
2022-08-25T11:21:41.915Z,1004.6
2022-08-25T11:22:41.912Z,1004.59
2022-08-25T11:23:41.904Z,1004.56
2022-08-25T11:24:41.887Z,1004.59
2022-08-25T11:25:41.871Z,1004.65
2022-08-25T11:26:41.872Z,1004.54
2022-08-25T11:27:41.863Z,1004.52
2022-08-25T11:28:41.881Z,1004.57
2022-08-25T11:29:41.846Z,1004.54
2022-08-25T11:30:41.826Z,1004.58
2022-08-25T11:31:41.821Z,1004.53
2022-08-25T11:32:41.809Z,1004.57
2022-08-25T11:33:41.823Z,1004.53
2022-08-25T11:34:41.864Z,1004.56
2022-08-25T11:35:41.783Z,1004.54
2022-08-25T11:36:41.778Z,1004.54
2022-08-25T11:37:41.766Z,1004.5
2022-08-25T11:38:41.789Z,1004.51
2022-08-25T11:39:41.742Z,1004.48
2022-08-25T11:40:41.732Z,1004.52
2022-08-25T11:41:41.726Z,1004.47
2022-08-25T11:42:41.714Z,1004.54
2022-08-25T11:43:41.700Z,1004.6
2022-08-25T11:44:41.694Z,1004.56
2022-08-25T11:45:41.687Z,1004.53
2022-08-25T11:46:41.672Z,1004.58
2022-08-25T11:47:41.669Z,1004.53
2022-08-25T11:48:41.661Z,1004.49
2022-08-25T11:49:41.648Z,1004.42
2022-08-25T11:50:41.640Z,1004.45
2022-08-25T11:51:41.630Z,1004.28
2022-08-25T11:52:41.617Z,1004.41
2022-08-25T11:53:41.632Z,1004.29
2022-08-25T11:54:41.603Z,1004.35
2022-08-25T11:55:41.588Z,1004.39
2022-08-25T11:56:41.576Z,1004.4
2022-08-25T11:57:41.569Z,1004.37
2022-08-25T11:58:41.558Z,1004.35
2022-08-25T11:59:41.573Z,1004.28
2022-08-25T12:00:41.537Z,1004.33
2022-08-25T12:01:41.552Z,1004.29
2022-08-25T12:02:41.523Z,1004.3
2022-08-25T12:03:41.568Z,1004.35
2022-08-25T12:04:41.504Z,1004.39
2022-08-25T12:05:41.489Z,1004.43
2022-08-25T12:06:41.489Z,1004.36
2022-08-25T12:07:41.488Z,1004.39
2022-08-25T12:08:41.465Z,1004.42
2022-08-25T12:09:41.450Z,1004.37